Time;durP1;ratioP1;P1;durP2;ratioP2;P2;SDS_P1;SDS_P2;PMS_P1;PMS_P2;Temp;Humidity;BMP_temperature;BMP_pressure;BME280_temperature;BME280_humidity;BME280_pressure;Samples;Min_cycle;Max_cycle;Signal;HPM_P1;HPM_P2
2022/09/06 05:49:17;;;;;;;;;10.67;9.33;;;;;21.66;57.94;101285.13;5081614;27;45627;-74
2022/09/06 05:51:42;;;;;;;;;10.33;10.33;;;;;21.71;57.54;101283.72;5056251;27;45540;-75
2022/09/06 05:54:10;;;;;;;;;7.33;7.33;;;;;21.83;57.73;101281.72;5066095;27;45414;-75
2022/09/06 05:56:35;;;;;;;;;8.00;8.00;;;;;22.01;57.81;101282.81;5064974;28;45581;-75
2022/09/06 05:59:00;;;;;;;;;9.33;9.33;;;;;22.18;57.14;101283.94;5061032;28;46015;-75
2022/09/06 06:01:28;;;;;;;;;10.00;9.00;;;;;22.34;57.14;101291.44;5067686;28;45403;-74
2022/09/06 06:03:55;;;;;;;;;8.67;8.67;;;;;22.55;57.52;101288.53;5069036;28;46726;-76
2022/09/06 06:06:21;;;;;;;;;10.00;9.00;;;;;22.71;56.86;101287.91;5071167;27;45482;-72
2022/09/06 06:08:47;;;;;;;;;7.00;7.00;;;;;22.82;56.71;101289.56;5067806;28;47234;-73
2022/09/06 06:11:13;;;;;;;;;7.00;7.00;;;;;23.01;56.88;101280.47;5069399;28;45871;-73
2022/09/06 06:13:39;;;;;;;;;7.00;7.00;;;;;23.33;56.19;101280.16;5058718;28;45498;-73
2022/09/06 06:16:18;;;;;;;;;8.00;7.00;;;;;23.71;55.45;101266.44;5067260;27;45501;-73
2022/09/06 06:18:43;;;;;;;;;8.00;7.00;;;;;24.04;55.17;101259.38;5071081;28;46357;-74
2022/09/06 06:21:20;;;;;;;;;8.67;7.67;;;;;24.37;54.43;101264.19;5070309;28;45450;-73
2022/09/06 06:23:49;;;;;;;;;8.00;8.00;;;;;24.66;53.86;101272.94;5070950;28;45416;-74
2022/09/06 06:26:14;;;;;;;;;11.67;8.67;;;;;24.93;53.08;101271.06;5070371;27;45716;-75
2022/09/06 06:28:40;;;;;;;;;7.33;7.33;;;;;25.17;52.83;101272.97;5068900;28;45757;-74
2022/09/06 06:31:07;;;;;;;;;7.67;7.67;;;;;25.38;52.44;101279.81;5063584;28;45745;-74
2022/09/06 06:33:35;;;;;;;;;6.67;6.67;;;;;25.52;52.36;101291.84;5064941;28;45540;-74
2022/09/06 06:36:06;;;;;;;;;9.00;9.00;;;;;25.69;51.65;101286.44;5066085;28;45536;-74
2022/09/06 06:38:36;;;;;;;;;8.67;7.00;;;;;25.77;51.23;101283.72;5071044;28;45358;-74
2022/09/06 06:41:02;;;;;;;;;8.00;8.00;;;;;25.89;51.50;101286.97;5068603;28;45760;-74
2022/09/06 06:43:28;;;;;;;;;10.00;10.00;;;;;26.01;51.18;101282.88;5069049;28;45439;-75
2022/09/06 06:45:54;;;;;;;;;8.67;8.00;;;;;26.14;51.18;101278.75;5066232;28;45678;-74
2022/09/06 06:48:20;;;;;;;;;8.67;7.67;;;;;26.29;50.37;101278.94;5068985;28;46134;-75
2022/09/06 06:50:45;;;;;;;;;7.67;7.67;;;;;26.43;49.99;101272.75;5070851;27;45937;-73
2022/09/06 06:53:11;;;;;;;;;6.67;6.67;;;;;26.54;50.18;101268.81;5069473;27;53546;-74
2022/09/06 06:55:37;;;;;;;;;8.00;8.00;;;;;26.58;49.87;101267.41;5067940;27;45435;-74
2022/09/06 06:58:02;;;;;;;;;13.00;10.00;;;;;26.62;49.46;101258.91;5068550;28;46229;-75
2022/09/06 07:00:28;;;;;;;;;8.00;8.00;;;;;26.68;49.62;101264.50;5057115;27;45500;-76
2022/09/06 07:02:55;;;;;;;;;8.33;6.67;;;;;26.75;49.82;101259.19;5057017;28;45470;-75
2022/09/06 07:05:21;;;;;;;;;10.00;10.00;;;;;26.80;49.70;101259.50;5057140;28;45426;-74
2022/09/06 07:07:46;;;;;;;;;8.33;8.33;;;;;26.82;49.22;101251.97;5056044;28;46263;-73
2022/09/06 07:10:12;;;;;;;;;9.00;9.00;;;;;26.82;49.37;101243.81;5056321;28;45560;-72
2022/09/06 07:12:37;;;;;;;;;11.00;9.00;;;;;26.86;48.91;101246.19;5051282;28;45372;-72
2022/09/06 07:15:03;;;;;;;;;11.00;9.00;;;;;26.90;49.04;101250.25;5056948;28;45377;-74
2022/09/06 07:17:28;;;;;;;;;11.67;9.33;;;;;26.92;49.21;101250.91;5055123;28;45498;-76
2022/09/06 07:19:54;;;;;;;;;8.67;8.67;;;;;26.90;48.84;101255.69;5056256;28;45444;-77
2022/09/06 07:22:19;;;;;;;;;9.67;9.67;;;;;26.90;49.53;101256.56;5056365;28;50448;-74
2022/09/06 07:24:44;;;;;;;;;10.33;10.00;;;;;26.90;48.93;101253.84;5056634;28;45459;-74
2022/09/06 07:27:09;;;;;;;;;8.67;8.67;;;;;26.93;49.35;101252.63;5055388;28;48800;-73
2022/09/06 07:29:35;;;;;;;;;10.33;10.33;;;;;27.02;49.45;101256.19;5056475;28;46041;-73
2022/09/06 07:32:00;;;;;;;;;9.00;8.67;;;;;27.07;48.73;101260.06;5055865;28;45764;-73
2022/09/06 07:34:26;;;;;;;;;8.67;8.67;;;;;27.13;48.83;101263.94;5055203;28;45400;-73
2022/09/06 07:36:55;;;;;;;;;8.67;8.67;;;;;27.23;48.33;101261.81;5055793;28;46397;-74
2022/09/06 07:39:20;;;;;;;;;11.00;11.00;;;;;27.27;49.02;101267.75;5056827;28;45478;-74
2022/09/06 07:41:46;;;;;;;;;10.67;9.67;;;;;27.26;48.67;101267.94;5054009;28;45832;-76
2022/09/06 07:44:11;;;;;;;;;7.67;7.67;;;;;27.25;48.79;101277.97;5056155;28;45497;-75
2022/09/06 07:46:37;;;;;;;;;8.67;8.00;;;;;27.23;48.43;101275.44;5055578;28;46089;-74
2022/09/06 07:49:04;;;;;;;;;9.67;8.00;;;;;27.28;48.58;101272.19;5074574;28;45385;-75
2022/09/06 07:51:29;;;;;;;;;9.33;9.33;;;;;27.31;48.19;101285.44;5075086;28;45449;-75
2022/09/06 07:53:55;;;;;;;;;10.00;9.00;;;;;27.33;48.82;101283.38;5076129;28;50746;-74
2022/09/06 07:56:21;;;;;;;;;9.00;9.00;;;;;27.35;48.11;101286.75;5056038;28;47301;-74
2022/09/06 07:58:47;;;;;;;;;10.33;10.33;;;;;27.36;47.98;101285.75;5076403;28;45465;-75
2022/09/06 08:01:35;;;;;;;;;8.33;8.33;;;;;27.35;48.07;101283.19;5076019;28;45621;-74
2022/09/06 08:04:08;;;;;;;;;7.00;7.00;;;;;27.39;48.44;101287.28;5068392;28;45363;-74
2022/09/06 08:06:37;;;;;;;;;8.33;8.33;;;;;27.44;48.50;101292.16;5069431;28;46268;-74
2022/09/06 08:09:05;;;;;;;;;7.67;7.67;;;;;27.47;48.31;101289.91;5074815;28;45611;-74
2022/09/06 08:11:32;;;;;;;;;8.33;8.33;;;;;27.51;48.00;101292.28;5074359;28;45423;-74
2022/09/06 08:14:00;;;;;;;;;8.33;8.33;;;;;27.55;48.19;101285.44;5062143;28;45544;-74
2022/09/06 08:16:27;;;;;;;;;8.00;8.00;;;;;27.59;47.39;101284.03;5075550;28;46168;-73
2022/09/06 08:18:55;;;;;;;;;7.67;7.67;;;;;27.64;47.16;101280.78;5075754;28;45437;-73
2022/09/06 08:21:23;;;;;;;;;7.67;7.67;;;;;27.67;47.91;101274.97;5062399;28;45431;-75
2022/09/06 08:24:14;;;;;;;;;7.00;7.00;;;;;27.72;47.76;101262.47;5075479;28;45477;-74
2022/09/06 08:26:41;;;;;;;;;8.00;7.67;;;;;27.76;47.00;101257.50;5072007;28;45413;-74
2022/09/06 08:29:08;;;;;;;;;7.67;7.67;;;;;27.75;47.54;101262.09;5075290;28;45390;-73
2022/09/06 08:31:36;;;;;;;;;7.33;7.33;;;;;27.78;47.06;101260.06;5075784;28;45427;-73
2022/09/06 08:34:02;;;;;;;;;7.33;7.33;;;;;27.81;46.74;101265.13;5075456;28;45425;-72
2022/09/06 08:36:29;;;;;;;;;6.00;6.00;;;;;27.85;46.92;101274.63;5072712;28;46169;-74
2022/09/06 08:38:59;;;;;;;;;7.00;6.67;;;;;27.86;46.64;101273.59;5075640;28;45321;-73
2022/09/06 08:41:36;;;;;;;;;9.00;8.00;;;;;27.89;47.17;101281.41;5074805;28;45499;-74
2022/09/06 08:44:02;;;;;;;;;8.00;8.00;;;;;27.95;46.81;101274.38;5070295;28;45366;-74
2022/09/06 08:46:38;;;;;;;;;7.33;6.67;;;;;28.02;46.35;101270.72;5075095;28;46251;-73
2022/09/06 08:49:05;;;;;;;;;6.00;6.00;;;;;28.09;46.80;101269.97;5075223;28;45720;-74
2022/09/06 08:51:45;;;;;;;;;5.00;5.00;;;;;28.13;46.72;101265.84;5075709;28;45458;-74
2022/09/06 08:54:34;;;;;;;;;6.33;6.33;;;;;28.18;46.09;101257.06;5054009;28;45514;-74
2022/09/06 08:57:13;;;;;;;;;7.67;7.67;;;;;28.23;45.72;101257.34;5075494;27;46240;-74
2022/09/06 08:59:40;;;;;;;;;7.00;7.00;;;;;28.27;46.11;101243.19;5074035;28;45690;-73
2022/09/06 09:02:15;;;;;;;;;5.00;5.00;;;;;28.32;45.29;101239.88;5075250;28;45745;-72
2022/09/06 09:04:55;;;;;;;;;7.00;7.00;;;;;28.34;45.52;101232.38;5074801;28;45380;-72
2022/09/06 09:07:42;;;;;;;;;9.00;7.67;;;;;28.31;45.90;101249.09;5073704;28;46203;-75
2022/09/06 09:10:29;;;;;;;;;6.67;6.67;;;;;28.36;45.94;101264.94;5075157;28;45498;-74
2022/09/06 09:12:55;;;;;;;;;8.33;8.33;;;;;28.43;45.31;101268.59;5072670;28;45423;-76
2022/09/06 09:15:21;;;;;;;;;5.67;5.67;;;;;28.48;45.71;101274.31;5072292;28;45415;-74
2022/09/06 09:17:50;;;;;;;;;7.33;6.67;;;;;28.54;45.54;101278.19;5054911;28;46930;-76
2022/09/06 09:20:16;;;;;;;;;5.33;5.33;;;;;28.60;45.02;101287.50;5075398;28;45438;-74
2022/09/06 09:22:42;;;;;;;;;7.00;7.00;;;;;28.63;44.99;101287.97;5073658;28;45417;-76
2022/09/06 09:25:16;;;;;;;;;7.00;7.00;;;;;28.70;45.30;101298.13;5066726;28;45419;-76
2022/09/06 09:27:44;;;;;;;;;6.67;6.00;;;;;28.74;44.94;101296.72;5074030;28;45390;-75
2022/09/06 09:30:10;;;;;;;;;6.67;6.67;;;;;28.76;44.83;101300.09;5074547;28;45510;-76
2022/09/06 09:32:39;;;;;;;;;6.67;6.67;;;;;28.74;44.57;101296.72;5073706;28;45357;-75
2022/09/06 09:35:17;;;;;;;;;7.67;7.67;;;;;28.67;44.94;101289.28;5073792;28;45364;-75
2022/09/06 09:37:43;;;;;;;;;8.67;7.33;;;;;28.64;44.27;101275.16;5072541;28;46381;-76
2022/09/06 09:40:30;;;;;;;;;7.33;7.33;;;;;28.63;44.66;101281.66;5074056;28;45512;-76
2022/09/06 09:43:11;;;;;;;;;6.67;6.33;;;;;28.65;44.93;101287.78;5069412;28;45311;-76
2022/09/06 09:45:36;;;;;;;;;7.67;7.67;;;;;28.62;44.73;101279.97;5075354;28;45347;-76
2022/09/06 09:48:20;;;;;;;;;6.67;6.67;;;;;28.59;44.47;101283.91;5064738;28;45933;-76
2022/09/06 09:50:46;;;;;;;;;6.33;6.33;;;;;28.56;44.64;101283.47;5064069;28;45379;-76
2022/09/06 09:53:15;;;;;;;;;8.67;8.33;;;;;28.54;44.96;101281.75;5069577;28;45430;-76
2022/09/06 09:55:41;;;;;;;;;6.33;6.00;;;;;28.57;44.86;101288.72;5062938;28;45719;-76
2022/09/06 09:58:19;;;;;;;;;7.00;7.00;;;;;28.63;45.03;101289.84;5071122;28;46160;-78
2022/09/06 10:00:44;;;;;;;;;12.67;6.33;;;;;28.71;44.71;101289.75;5071718;28;45420;-78
2022/09/06 10:03:16;;;;;;;;;5.00;5.00;;;;;28.74;44.57;101286.66;5070029;28;45526;-77
2022/09/06 10:05:42;;;;;;;;;7.00;7.00;;;;;28.81;44.59;101292.16;5063579;28;45634;-78
2022/09/06 10:08:11;;;;;;;;;8.33;7.00;;;;;28.85;44.78;101300.84;5068351;28;46207;-77
2022/09/06 10:10:45;;;;;;;;;6.67;5.33;;;;;28.88;43.89;101298.59;5048283;28;45404;-78
2022/09/06 10:13:19;;;;;;;;;6.33;6.33;;;;;28.92;43.98;101294.44;5071850;27;45688;-76
2022/09/06 10:15:46;;;;;;;;;7.33;6.67;;;;;28.94;44.24;101297.00;5058807;28;45636;-75
2022/09/06 10:18:34;;;;;;;;;7.00;6.67;;;;;28.98;44.58;101281.06;5061586;28;46131;-76
2022/09/06 10:21:15;;;;;;;;;7.33;6.00;;;;;29.02;43.65;101285.94;5067052;28;45564;-77
2022/09/06 10:24:08;;;;;;;;;5.33;5.33;;;;;29.03;44.27;101270.38;5071716;28;46416;-77
2022/09/06 10:26:45;;;;;;;;;7.33;7.33;;;;;29.04;44.07;101266.63;5005597;28;45544;-78
2022/09/06 10:29:13;;;;;;;;;9.00;7.00;;;;;29.07;44.08;101260.78;5008042;28;46164;-77
2022/09/06 10:31:38;;;;;;;;;6.00;6.00;;;;;29.08;43.55;101251.53;4989391;28;45438;-78
2022/09/06 10:34:25;;;;;;;;;7.33;7.33;;;;;29.04;44.27;101242.88;5009166;28;45541;-77
2022/09/06 10:37:03;;;;;;;;;9.00;8.33;;;;;29.00;43.40;101232.50;5014613;28;45439;-77
2022/09/06 10:39:55;;;;;;;;;7.67;7.67;;;;;28.93;44.35;101225.09;5011529;28;45526;-77
2022/09/06 10:42:44;;;;;;;;;7.33;6.67;;;;;28.89;44.27;101234.72;5011007;28;45703;-77
2022/09/06 10:45:43;;;;;;;;;7.00;6.33;;;;;28.85;43.64;101227.09;5014033;28;45923;-77
2022/09/06 10:48:24;;;;;;;;;8.33;7.33;;;;;28.82;43.94;101227.47;5009921;28;46502;-78
2022/09/06 10:51:11;;;;;;;;;8.00;8.00;;;;;28.79;43.98;101225.97;5010685;28;46492;-77
2022/09/06 10:54:02;;;;;;;;;7.33;6.33;;;;;28.78;44.67;101216.91;5012713;28;45410;-77
2022/09/06 10:56:39;;;;;;;;;8.00;8.00;;;;;28.78;44.07;101205.16;5013747;28;45542;-75
2022/09/06 10:59:17;;;;;;;;;6.33;6.33;;;;;28.82;44.44;101202.88;5008589;28;45520;-75
2022/09/06 11:01:56;;;;;;;;;8.33;5.33;;;;;28.84;43.98;101204.38;5003276;28;46768;-78
2022/09/06 11:04:29;;;;;;;;;7.00;7.00;;;;;28.87;44.23;101194.94;5050918;28;45904;-78
2022/09/06 11:06:59;;;;;;;;;7.33;7.33;;;;;28.89;44.04;101195.66;5061589;28;45492;-78
2022/09/06 11:09:24;;;;;;;;;7.33;7.00;;;;;28.94;44.45;101204.09;5058103;28;45492;-78
2022/09/06 11:11:57;;;;;;;;;8.33;8.00;;;;;28.99;44.10;101190.69;5064437;28;46311;-78
2022/09/06 11:14:26;;;;;;;;;6.67;6.67;;;;;29.03;44.08;101182.94;5060280;28;46037;-78
2022/09/06 11:16:59;;;;;;;;;6.67;6.67;;;;;29.04;43.64;101165.50;5062197;28;45491;-78
2022/09/06 11:19:32;;;;;;;;;7.67;7.67;;;;;29.09;43.99;101179.44;5059446;28;45472;-78
2022/09/06 11:22:06;;;;;;;;;8.00;7.67;;;;;29.15;43.44;101177.81;5061458;28;46345;-77
2022/09/06 11:25:13;;;;;;;;;9.00;6.00;;;;;29.13;43.64;101171.69;5069404;28;45423;-77
2022/09/06 11:27:44;;;;;;;;;8.00;7.00;;;;;29.13;44.02;101175.25;5068383;28;45860;-78
2022/09/06 11:30:16;;;;;;;;;8.33;8.33;;;;;29.16;43.78;101155.75;5073285;28;45444;-78
2022/09/06 11:32:50;;;;;;;;;9.67;9.00;;;;;29.19;43.29;101157.25;5065607;28;46375;-78
2022/09/06 11:35:29;;;;;;;;;9.00;9.00;;;;;29.19;43.41;101158.06;5072074;28;45381;-78
2022/09/06 11:38:09;;;;;;;;;4.67;4.00;;;;;29.24;43.42;101149.28;5062966;27;45629;-75
2022/09/06 11:40:40;;;;;;;;;8.33;7.33;;;;;29.25;44.02;101150.97;5060465;28;45732;-78
2022/09/06 11:43:17;;;;;;;;;8.67;7.33;;;;;29.23;43.41;101150.34;5067663;28;46501;-77
2022/09/06 11:45:50;;;;;;;;;7.33;7.33;;;;;29.04;43.34;101151.84;5071277;28;45545;-78
2022/09/06 11:48:25;;;;;;;;;10.33;7.00;;;;;28.84;44.18;101147.00;5073892;28;45389;-79
2022/09/06 11:50:53;;;;;;;;;7.67;6.33;;;;;28.69;44.07;101140.78;5074072;28;45470;-79
2022/09/06 11:53:20;;;;;;;;;10.33;8.00;;;;;28.60;44.99;101140.88;5074347;28;46473;-76
2022/09/06 11:55:59;;;;;;;;;8.00;7.00;;;;;28.51;45.16;101128.38;5076123;28;45850;-75
2022/09/06 11:58:44;;;;;;;;;8.33;8.33;;;;;28.45;45.37;101121.84;5075406;28;45486;-79
2022/09/06 12:01:12;;;;;;;;;6.33;6.33;;;;;28.40;45.21;101119.66;5075624;27;45505;-79
2022/09/06 12:03:47;;;;;;;;;8.67;8.67;;;;;28.35;44.75;101113.94;5054984;28;46209;-77
2022/09/06 12:06:18;;;;;;;;;6.67;6.67;;;;;28.31;45.38;101120.81;5074728;28;45488;-77
2022/09/06 12:08:43;;;;;;;;;7.00;7.00;;;;;28.26;45.28;101113.22;5075402;28;45474;-81
2022/09/06 12:11:41;;;;;;;;;6.33;6.33;;;;;28.27;45.59;101111.31;5075626;28;45490;-79
2022/09/06 12:14:27;;;;;;;;;9.67;7.33;;;;;28.26;45.08;101112.38;5069960;28;45521;-78
2022/09/06 12:16:58;;;;;;;;;10.00;8.67;;;;;28.20;45.28;101116.66;5075234;28;45513;-81
2022/09/06 12:19:41;;;;;;;;;10.00;8.00;;;;;28.14;45.84;101115.56;5075694;28;45413;-78
2022/09/06 12:22:25;;;;;;;;;7.00;6.00;;;;;28.11;45.59;101107.75;5071056;28;45327;-77
2022/09/06 12:24:56;;;;;;;;;9.00;8.00;;;;;28.12;46.33;101098.53;5071403;28;45360;-79
2022/09/06 12:27:25;;;;;;;;;8.00;8.00;;;;;28.12;45.83;101094.97;5073955;28;45782;-79
2022/09/06 12:30:10;;;;;;;;;9.33;7.67;;;;;28.13;45.37;101091.19;5072795;28;45387;-80
2022/09/06 12:32:44;;;;;;;;;8.00;8.00;;;;;28.13;45.69;101089.28;5075169;28;45801;-79
2022/09/06 12:35:30;;;;;;;;;8.00;7.00;;;;;28.12;45.68;101089.50;5075810;28;46868;-79
2022/09/06 12:38:01;;;;;;;;;5.00;5.00;;;;;28.09;46.07;101070.78;5073574;28;45595;-78
2022/09/06 12:40:34;;;;;;;;;7.33;7.33;;;;;28.09;45.76;101062.59;5074520;28;45369;-80
2022/09/06 12:43:03;;;;;;;;;7.67;7.67;;;;;28.06;46.12;101061.09;5075231;28;45472;-79
2022/09/06 12:45:28;;;;;;;;;9.00;7.00;;;;;28.05;45.60;101056.69;5075567;28;46201;-77
2022/09/06 12:48:10;;;;;;;;;7.00;7.00;;;;;28.05;45.76;101053.09;5074266;28;45395;-78
2022/09/06 12:50:36;;;;;;;;;7.00;7.00;;;;;28.04;46.22;101049.56;5075525;28;45367;-80
2022/09/06 12:53:16;;;;;;;;;9.00;7.00;;;;;28.08;45.74;101052.72;5071224;28;45438;-78
2022/09/06 12:55:41;;;;;;;;;5.67;5.67;;;;;28.07;46.37;101038.22;5073860;28;46463;-80
2022/09/06 12:58:10;;;;;;;;;7.00;7.00;;;;;28.10;45.79;101039.72;5074003;28;45687;-80
2022/09/06 13:00:50;;;;;;;;;6.00;4.33;;;;;28.08;45.67;101033.63;5075182;28;45406;-79
2022/09/06 13:03:30;;;;;;;;;7.00;6.33;;;;;28.01;45.76;101028.97;5075546;28;45454;-76
2022/09/06 13:05:59;;;;;;;;;7.00;6.33;;;;;27.97;46.30;101024.91;5074819;28;47425;-77
2022/09/06 13:08:33;;;;;;;;;10.00;7.00;;;;;27.97;46.26;101024.06;5074824;28;45450;-75
2022/09/06 13:11:01;;;;;;;;;5.33;5.33;;;;;27.94;46.58;101016.25;5074258;28;45711;-79
2022/09/06 13:13:27;;;;;;;;;7.00;7.00;;;;;27.93;45.93;101011.84;5074810;28;45472;-77
2022/09/06 13:15:53;;;;;;;;;7.00;7.00;;;;;27.91;46.03;101014.75;5073077;28;47017;-80
2022/09/06 13:18:22;;;;;;;;;6.00;6.00;;;;;27.99;46.59;101013.78;5075248;28;45853;-80
2022/09/06 13:21:10;;;;;;;;;5.67;5.67;;;;;28.06;45.85;101005.69;5071622;28;45745;-79
2022/09/06 13:23:49;;;;;;;;;7.00;6.00;;;;;28.05;45.69;100999.41;5068524;28;45392;-79
2022/09/06 13:26:30;;;;;;;;;6.00;5.00;;;;;28.12;46.21;101004.94;5070423;28;47222;-78
2022/09/06 13:28:55;;;;;;;;;7.33;7.33;;;;;28.07;46.31;100993.75;5073692;27;45411;-79
2022/09/06 13:31:21;;;;;;;;;7.67;7.67;;;;;28.02;45.91;100983.41;5074844;28;45550;-77
2022/09/06 13:33:58;;;;;;;;;6.00;6.00;;;;;28.02;45.82;100975.22;5074059;28;45359;-78
2022/09/06 13:36:26;;;;;;;;;6.00;6.00;;;;;28.03;46.21;100968.72;5071594;28;45317;-79
2022/09/06 13:38:52;;;;;;;;;6.33;6.33;;;;;28.07;46.04;100980.13;5070970;28;45374;-80
2022/09/06 13:41:23;;;;;;;;;6.00;6.00;;;;;28.06;45.69;100968.34;5071697;28;45499;-80
2022/09/06 13:43:57;;;;;;;;;7.00;5.00;;;;;28.07;46.06;100970.03;5074129;28;45977;-79
2022/09/06 13:46:22;;;;;;;;;5.00;5.00;;;;;28.06;45.94;100965.63;5071807;28;46165;-80
2022/09/06 13:48:48;;;;;;;;;6.00;6.00;;;;;28.06;45.48;100964.75;5071755;28;45494;-80
2022/09/06 13:51:13;;;;;;;;;7.00;7.00;;;;;28.03;45.35;100966.00;5072525;28;45897;-78
2022/09/06 13:53:39;;;;;;;;;4.00;4.00;;;;;28.02;46.02;100958.84;5065564;28;45562;-76
2022/09/06 13:56:07;;;;;;;;;6.00;6.00;;;;;27.97;46.15;100954.00;5069395;28;45431;-76
2022/09/06 13:58:33;;;;;;;;;5.67;5.67;;;;;27.96;45.93;100949.56;5068814;28;45543;-82
2022/09/06 14:00:59;;;;;;;;;5.67;5.67;;;;;27.99;46.27;100949.19;5071014;28;45498;-79
2022/09/06 14:03:30;;;;;;;;;3.67;3.67;;;;;28.00;46.17;100948.13;5073436;28;45477;-78
2022/09/06 14:05:56;;;;;;;;;6.67;6.00;;;;;28.02;46.09;100945.22;5072560;28;45506;-77
2022/09/06 14:08:22;;;;;;;;;6.33;6.33;;;;;28.02;45.88;100951.53;5070162;28;45416;-75
2022/09/06 14:10:49;;;;;;;;;6.00;5.00;;;;;28.03;46.10;100952.34;5057589;28;45451;-76
2022/09/06 14:13:16;;;;;;;;;5.00;5.00;;;;;28.04;45.48;100951.34;5067008;28;45523;-73
2022/09/06 14:15:41;;;;;;;;;7.33;7.00;;;;;28.06;45.79;100951.13;5064055;28;46424;-72
2022/09/06 14:18:06;;;;;;;;;5.67;5.00;;;;;28.07;45.87;100947.38;5062679;28;45394;-74
2022/09/06 14:20:32;;;;;;;;;6.00;5.00;;;;;28.07;45.94;100948.19;5058777;28;45835;-74
2022/09/06 14:22:57;;;;;;;;;6.00;6.00;;;;;28.06;45.67;100948.38;5060802;28;47905;-75
2022/09/06 14:25:23;;;;;;;;;6.67;6.67;;;;;28.05;45.38;100942.09;5067448;28;45339;-74
2022/09/06 14:27:48;;;;;;;;;6.33;4.67;;;;;28.05;45.48;100938.53;5065073;27;45479;-76
2022/09/06 14:30:14;;;;;;;;;4.67;4.67;;;;;28.02;45.50;100932.44;5070966;27;45680;-73
2022/09/06 14:32:39;;;;;;;;;5.00;5.00;;;;;28.02;45.61;100937.88;5057741;28;45559;-75
2022/09/06 14:35:05;;;;;;;;;4.00;4.00;;;;;28.04;45.11;100936.84;5062602;28;45750;-76
2022/09/06 14:37:31;;;;;;;;;5.67;5.67;;;;;28.05;45.24;100922.16;5067457;28;45647;-75
2022/09/06 14:39:57;;;;;;;;;6.00;5.33;;;;;28.10;45.13;100927.88;5066425;28;45639;-76
2022/09/06 14:42:23;;;;;;;;;4.67;4.67;;;;;28.11;45.78;100930.41;5062029;28;45474;-76
2022/09/06 14:44:49;;;;;;;;;6.00;4.67;;;;;28.13;45.07;100922.84;5059338;28;46405;-75
2022/09/06 14:47:15;;;;;;;;;4.00;4.00;;;;;28.13;45.47;100916.56;5059335;28;45458;-75
2022/09/06 14:49:40;;;;;;;;;6.33;4.67;;;;;28.15;45.52;100920.78;5042806;27;45779;-76
2022/09/06 14:52:06;;;;;;;;;4.00;4.00;;;;;28.26;44.75;100910.41;5064724;28;45796;-76
2022/09/06 14:54:31;;;;;;;;;4.33;4.33;;;;;28.40;44.57;100905.91;5071974;28;45435;-77
2022/09/06 14:56:56;;;;;;;;;4.67;3.00;;;;;28.51;44.09;100893.59;5069857;28;45744;-77
2022/09/06 14:59:22;;;;;;;;;4.67;4.67;;;;;28.66;43.71;100896.25;5058966;28;45510;-77
2022/09/06 15:01:47;;;;;;;;;2.67;2.67;;;;;28.79;43.16;100892.75;5074097;28;45440;-77
2022/09/06 15:04:12;;;;;;;;;4.00;3.00;;;;;28.89;43.05;100893.25;5069062;28;45684;-78
2022/09/06 15:06:39;;;;;;;;;4.33;4.33;;;;;28.96;42.69;100881.50;5063996;28;45439;-77
2022/09/06 15:09:06;;;;;;;;;6.33;3.67;;;;;29.00;43.29;100886.38;5063012;27;45464;-77
2022/09/06 15:11:34;;;;;;;;;4.33;4.33;;;;;29.06;43.26;100879.28;5059955;28;45736;-80
2022/09/06 15:14:06;;;;;;;;;3.00;3.00;;;;;29.10;42.95;100876.97;5061914;28;46357;-78
2022/09/06 15:16:33;;;;;;;;;7.00;5.33;;;;;29.18;43.17;100882.28;5065888;28;45519;-77
2022/09/06 15:18:59;;;;;;;;;6.33;6.33;;;;;29.23;43.54;100882.50;5062546;28;45479;-78
2022/09/06 15:21:25;;;;;;;;;5.67;4.67;;;;;29.28;43.25;100870.94;5065877;28;45655;-78
2022/09/06 15:23:51;;;;;;;;;4.33;4.33;;;;;29.33;42.48;100871.16;5065260;28;46210;-78
2022/09/06 15:26:17;;;;;;;;;6.00;6.00;;;;;29.39;42.58;100874.97;5061681;28;45531;-78
2022/09/06 15:28:43;;;;;;;;;5.00;5.00;;;;;29.43;42.45;100870.78;5060318;28;45458;-79
2022/09/06 15:31:09;;;;;;;;;6.00;6.00;;;;;29.44;42.95;100867.84;5072102;28;45270;-78
2022/09/06 15:33:36;;;;;;;;;5.00;5.00;;;;;29.45;43.18;100855.00;5066055;28;46538;-78
2022/09/06 15:36:06;;;;;;;;;4.00;4.00;;;;;29.48;42.74;100861.94;5063838;28;46041;-79
2022/09/06 15:38:32;;;;;;;;;4.33;4.33;;;;;29.51;42.46;100861.59;5042403;28;45657;-77
2022/09/06 15:41:06;;;;;;;;;7.00;5.00;;;;;29.41;42.90;100861.94;5065760;28;45409;-79
2022/09/06 15:43:32;;;;;;;;;6.00;4.67;;;;;29.26;43.31;100856.66;5062395;28;46405;-77
2022/09/06 15:45:59;;;;;;;;;6.00;6.00;;;;;29.11;43.81;100846.72;5063600;28;46086;-77
2022/09/06 15:48:24;;;;;;;;;5.00;4.33;;;;;28.99;44.05;100846.44;5063103;28;45446;-76
2022/09/06 16:57:33;;;;;;;;;4.33;4.33;;;;;26.08;49.36;100768.13;5074522;27;45510;-75
2022/09/06 16:59:59;;;;;;;;;5.67;4.00;;;;;26.15;49.20;100775.34;5071193;27;45404;-77
2022/09/06 17:05:56;;;;;;;;;6.33;5.00;;;;;26.41;49.29;100776.78;5108070;27;45441;-72
2022/09/06 17:08:22;;;;;;;;;4.33;4.33;;;;;26.59;48.87;100786.47;5110559;27;45541;-72
2022/09/06 17:10:48;;;;;;;;;3.00;3.00;;;;;26.77;48.99;100794.25;5108919;27;45401;-72
2022/09/06 17:13:13;;;;;;;;;4.67;4.67;;;;;26.95;48.39;100785.72;5101882;27;45442;-72
2022/09/06 17:18:26;;;;;;;;;5.00;3.67;;;;;27.39;47.44;100793.09;5109303;27;45644;-72
2022/09/06 17:21:00;;;;;;;;;4.00;4.00;;;;;27.60;47.47;100787.72;5104314;27;45507;-72
2022/09/06 17:23:27;;;;;;;;;6.00;6.00;;;;;27.78;47.20;100780.94;5111055;27;45342;-71
2022/09/06 17:25:53;;;;;;;;;4.00;4.00;;;;;27.96;47.25;100783.16;5101515;27;45564;-72
2022/09/06 17:28:19;;;;;;;;;3.00;2.67;;;;;28.12;46.28;100786.66;5104739;27;45484;-71
2022/09/06 17:30:45;;;;;;;;;5.00;5.00;;;;;28.25;46.47;100781.31;5103469;27;45456;-72
2022/09/06 17:33:12;;;;;;;;;6.33;5.00;;;;;28.40;45.75;100766.69;5099362;27;45784;-73
2022/09/06 17:35:39;;;;;;;;;5.00;4.33;;;;;28.52;46.06;100767.81;5110400;27;45393;-72
2022/09/06 17:38:05;;;;;;;;;5.00;5.00;;;;;28.63;45.21;100779.22;5100373;27;45478;-72
2022/09/06 17:40:31;;;;;;;;;5.00;3.00;;;;;28.72;45.36;100779.91;5110576;27;45185;-73
2022/09/06 17:42:56;;;;;;;;;4.00;4.00;;;;;28.77;45.22;100778.22;5102992;27;45547;-74
2022/09/06 17:45:23;;;;;;;;;3.67;3.67;;;;;28.79;45.33;100783.50;5105848;27;46135;-73
2022/09/06 17:47:48;;;;;;;;;4.00;4.00;;;;;28.84;45.46;100783.72;5107277;27;45532;-73
2022/09/06 17:50:14;;;;;;;;;3.67;3.33;;;;;28.88;45.44;100785.03;5110750;27;46794;-73
2022/09/06 17:52:40;;;;;;;;;6.67;4.00;;;;;28.93;45.20;100798.94;5109733;27;45530;-74
2022/09/06 17:55:06;;;;;;;;;4.00;4.00;;;;;28.96;44.85;100800.41;5109262;27;45518;-73
2022/09/06 17:57:32;;;;;;;;;6.33;5.67;;;;;29.02;44.90;100804.22;5111707;27;45525;-72
2022/09/06 17:59:58;;;;;;;;;6.67;5.00;;;;;29.10;45.00;100804.00;5104034;27;45569;-72
2022/09/06 18:02:24;;;;;;;;;4.00;4.00;;;;;29.15;44.48;100806.16;5111754;27;45618;-73
2022/09/06 18:04:50;;;;;;;;;4.33;4.33;;;;;29.17;44.92;100813.09;5109370;27;45911;-72
2022/09/06 18:07:16;;;;;;;;;6.00;5.00;;;;;29.19;44.81;100821.91;5110203;27;45707;-73
2022/09/06 18:09:42;;;;;;;;;3.33;3.33;;;;;29.22;44.08;100820.66;5108477;27;45385;-73
2022/09/06 18:12:08;;;;;;;;;5.00;5.00;;;;;29.23;44.64;100827.84;5109378;27;45432;-73
